Terminal Aerodrome Forecast
Issued by NWS Cleveland, OH

Home | Current Version | Previous Version | Graphics & Text | Print | Product List | Glossary On
Versions: 1 2 3 4 5 6 7 8 9 10 11 12 13 14 15
849
FTUS41 KCLE 061857 AAA
TAFCAK
TAF AMD
KCAK 061857Z 0619/0718 25009KT P6SM FEW035 SCT250
     FM070500 20005KT P6SM SCT025 BKN060=

USA.gov is the U.S. government's official web portal to all federal, state and local government web resources and services.